Date,TemperatureHighF,TemperatureAvgF,TemperatureLowF,DewpointHighF,DewpointAvgF,DewpointLowF,HumidityHigh,HumidityAvg,HumidityLow,PressureMaxIn,PressureMinIn,WindSpeedMaxMPH,WindSpeedAvgMPH,GustSpeedMaxMPH,PrecipitationSumIn
2013-4-1,78.0,72.0,64.0,58.0,54.7,51.0,70,55,41,30.01,29.92,12,7,16,0.01
2013-4-2,80.0,73.2,65.0,56.0,55.1,53.0,68,54,42,30.04,29.95,13,8,18,0.00
2013-4-3,82.0,74.2,65.0,62.0,57.1,53.0,64,56,45,30.07,29.96,10,6,14,0.00
2013-4-4,82.0,74.3,64.0,63.0,58.8,52.0,68,59,50,30.07,29.97,8,5,12,0.00
2013-4-5,82.0,75.1,67.0,65.0,61.2,56.0,74,62,53,30.10,29.99,10,5,14,0.00
2013-4-6,84.0,76.5,69.0,68.0,64.0,57.0,77,66,56,30.13,30.02,10,6,14,0.00
2013-4-7,82.0,77.6,72.0,69.0,66.0,62.0,80,68,55,30.15,30.04,10,6,15,0.00
2013-4-8,82.0,76.1,70.0,68.0,64.4,58.0,76,67,59,30.08,29.96,8,5,12,0.00
2013-4-9,82.0,76.0,69.0,68.0,66.5,64.0,91,73,58,30.05,29.95,9,5,12,0.36
2013-4-10,83.0,77.0,68.0,69.0,65.6,59.0,88,69,56,30.05,29.93,9,6,14,0.00
2013-4-11,83.0,77.5,72.0,69.0,65.5,61.0,79,67,55,30.02,29.91,10,5,14,0.00
2013-4-12,83.0,76.8,71.0,69.0,66.1,62.0,84,70,58,29.97,29.89,10,6,14,0.04
2013-4-13,84.0,77.3,71.0,69.0,67.2,65.0,88,72,57,29.96,29.85,15,8,22,0.04
2013-4-14,82.0,76.5,69.0,69.0,65.8,62.0,81,70,58,29.98,29.87,10,5,16,0.00
2013-4-15,86.0,77.8,68.0,69.0,65.6,61.0,82,67,50,30.03,29.92,12,6,17,0.00
2013-4-16,84.0,77.0,72.0,70.0,68.0,65.0,86,74,62,30.08,29.98,11,6,15,0.01
2013-4-17,83.0,76.9,71.0,72.0,66.4,61.0,88,70,55,30.10,30.00,8,5,14,0.09
2013-4-18,82.0,75.2,66.0,69.0,64.2,60.0,85,69,56,30.10,30.02,8,4,12,0.09
2013-4-19,84.0,77.1,70.0,68.0,65.4,62.0,79,68,57,30.08,30.00,10,6,14,0.00
2013-4-20,84.0,77.5,70.0,68.0,64.6,61.0,76,65,54,30.07,30.00,9,5,12,0.00
2013-4-21,83.0,76.8,69.0,69.0,65.4,58.0,79,68,57,30.05,29.96,11,6,15,0.00
2013-4-22,85.0,77.7,70.0,69.0,65.9,63.0,81,67,55,30.04,29.96,11,6,17,0.01
2013-4-23,84.0,77.8,68.0,69.0,65.9,59.0,77,67,55,30.06,29.98,9,6,15,0.00
2013-4-24,83.0,78.6,70.0,71.0,66.9,62.0,88,68,55,30.07,29.98,13,6,19,0.00
2013-4-25,84.0,77.1,70.0,70.0,65.3,59.0,88,68,51,30.05,29.95,9,5,15,0.00
2013-4-26,83.0,77.4,72.0,67.0,65.2,61.0,76,67,57,30.01,29.95,9,5,13,0.00
2013-4-27,84.0,77.7,70.0,69.0,64.9,61.0,75,65,54,30.04,29.94,9,6,15,0.00
2013-4-28,86.0,78.3,69.0,68.0,63.9,58.0,72,62,49,30.04,29.92,14,8,19,0.00
2013-4-29,85.0,78.0,71.0,71.0,65.6,60.0,90,66,54,30.00,29.90,11,6,16,0.08
2013-4-30,83.0,77.4,70.0,70.0,68.0,65.0,92,73,59,30.01,29.94,11,6,16,0.09